createdAt,value
2022-11-24T00:00:33.836Z,17.08
2022-11-24T00:03:36.856Z,18.40
2022-11-24T00:06:39.404Z,20.95
2022-11-24T00:09:41.835Z,22.02
2022-11-24T00:12:44.262Z,20.92
2022-11-24T00:15:46.668Z,22.10
2022-11-24T00:18:50.599Z,21.83
2022-11-24T00:21:53.061Z,16.02
2022-11-24T00:24:55.466Z,16.60
2022-11-24T00:27:57.782Z,15.20
2022-11-24T00:31:00.906Z,15.95
2022-11-24T00:34:06.279Z,15.90
2022-11-24T00:37:08.701Z,16.52
2022-11-24T00:40:11.655Z,17.03
2022-11-24T00:43:14.088Z,16.88
2022-11-24T00:46:17.087Z,17.45
2022-11-24T00:49:19.736Z,17.67
2022-11-24T00:52:22.127Z,18.60
2022-11-24T00:55:24.615Z,18.17
2022-11-24T00:58:27.366Z,19.52
2022-11-24T01:01:33.885Z,16.55
2022-11-24T01:04:36.640Z,16.00
2022-11-24T01:07:39.189Z,16.43
2022-11-24T01:10:41.804Z,17.17
2022-11-24T01:13:47.026Z,17.58
2022-11-24T01:16:49.488Z,20.85
2022-11-24T01:19:51.950Z,21.10
2022-11-24T01:22:54.636Z,21.55
2022-11-24T01:25:57.055Z,19.20
2022-11-24T01:28:59.485Z,17.52
2022-11-24T01:32:01.987Z,15.70
2022-11-24T01:35:05.995Z,14.38
2022-11-24T01:38:08.435Z,14.25
2022-11-24T01:41:15.189Z,13.10
2022-11-24T01:44:27.011Z,13.00
2022-11-24T01:47:40.734Z,12.80
2022-11-24T01:50:44.084Z,12.43
2022-11-24T01:53:54.275Z,13.00
2022-11-24T01:57:03.121Z,12.27
2022-11-24T02:00:09.782Z,11.47
2022-11-24T02:03:24.007Z,11.60
2022-11-24T02:06:31.585Z,11.75
2022-11-24T02:09:36.612Z,12.38
2022-11-24T02:12:42.335Z,12.47
2022-11-24T02:15:44.778Z,12.23
2022-11-24T02:18:47.468Z,12.73
2022-11-24T02:21:49.926Z,12.70
2022-11-24T02:25:01.522Z,11.55
2022-11-24T02:28:08.566Z,11.30
2022-11-24T02:31:11.801Z,12.70
2022-11-24T02:34:14.273Z,12.38
2022-11-24T02:37:16.683Z,12.25
2022-11-24T02:40:25.122Z,13.00
2022-11-24T02:43:32.583Z,12.77
2022-11-24T02:46:35.062Z,13.30
2022-11-24T02:49:38.080Z,13.70
2022-11-24T02:52:40.528Z,13.18
2022-11-24T02:55:42.897Z,12.33
2022-11-24T02:58:45.275Z,12.33
2022-11-24T03:01:48.018Z,11.77
2022-11-24T03:04:50.574Z,11.70
2022-11-24T03:07:53.134Z,12.13
2022-11-24T03:10:55.700Z,12.20
2022-11-24T03:13:58.835Z,12.45
2022-11-24T03:17:01.365Z,12.18
2022-11-24T03:20:05.388Z,13.17
2022-11-24T03:23:08.011Z,13.37
2022-11-24T03:26:13.142Z,12.88
2022-11-24T03:29:15.588Z,11.95
2022-11-24T03:32:18.151Z,12.52
2022-11-24T03:35:21.355Z,12.00
2022-11-24T03:38:23.903Z,11.65
2022-11-24T03:41:26.454Z,12.63
2022-11-24T03:44:28.953Z,12.13
2022-11-24T03:47:31.376Z,12.27
2022-11-24T03:50:33.770Z,11.60
2022-11-24T03:53:36.300Z,12.40
2022-11-24T03:56:44.298Z,11.50
2022-11-24T03:59:49.971Z,12.52
2022-11-24T04:02:56.934Z,12.47
2022-11-24T04:05:59.358Z,12.05
2022-11-24T04:09:01.687Z,12.48
2022-11-24T04:12:22.821Z,12.35
2022-11-24T04:15:25.162Z,12.10
2022-11-24T04:18:27.595Z,12.70
2022-11-24T04:21:29.979Z,13.10
2022-11-24T04:24:32.689Z,12.48
2022-11-24T04:27:36.956Z,13.05
2022-11-24T04:30:44.476Z,12.13
2022-11-24T04:33:46.983Z,13.18
2022-11-24T04:36:49.445Z,13.52
2022-11-24T04:39:51.889Z,12.15
2022-11-24T04:42:57.661Z,13.00
2022-11-24T04:46:01.623Z,13.05
2022-11-24T04:49:04.237Z,13.43
2022-11-24T04:52:06.666Z,14.25
2022-11-24T04:55:09.623Z,14.73
2022-11-24T04:58:12.364Z,15.43
2022-11-24T05:01:15.127Z,15.73
2022-11-24T05:04:20.445Z,15.90
2022-11-24T05:07:22.951Z,15.07
2022-11-24T05:10:38.106Z,14.65
2022-11-24T05:13:40.643Z,13.82
2022-11-24T05:16:43.312Z,13.60
2022-11-24T05:19:45.705Z,12.33
2022-11-24T05:22:48.107Z,12.40
2022-11-24T05:25:50.944Z,12.43
2022-11-24T05:28:53.725Z,12.77
2022-11-24T05:31:56.142Z,12.55
2022-11-24T05:35:00.588Z,15.10
2022-11-24T05:38:04.444Z,14.57
2022-11-24T05:41:06.829Z,14.10
2022-11-24T05:44:09.381Z,13.98
2022-11-24T05:47:11.728Z,13.43
2022-11-24T05:50:16.073Z,13.35
2022-11-24T05:53:18.531Z,13.15
2022-11-24T05:56:20.993Z,13.70
2022-11-24T05:59:23.448Z,15.17
2022-11-24T06:02:28.957Z,15.45
2022-11-24T06:05:32.033Z,15.25
2022-11-24T06:08:34.616Z,14.98
2022-11-24T06:11:38.179Z,14.37
2022-11-24T06:14:41.645Z,14.23
2022-11-24T06:17:44.665Z,14.43
2022-11-24T06:21:09.291Z,14.25
2022-11-24T06:24:48.235Z,15.47
2022-11-24T06:27:50.987Z,18.52
2022-11-24T06:30:53.630Z,19.23
2022-11-24T06:33:56.719Z,18.58
2022-11-24T06:36:59.325Z,17.67
2022-11-24T06:40:01.883Z,13.77
2022-11-24T06:43:04.604Z,14.18
2022-11-24T06:46:07.796Z,14.77
2022-11-24T06:49:10.653Z,15.15
2022-11-24T06:52:13.288Z,14.87
2022-11-24T06:55:16.134Z,14.18
2022-11-24T06:58:18.855Z,15.00
2022-11-24T07:01:23.995Z,16.00
2022-11-24T07:04:26.609Z,17.27
2022-11-24T07:07:29.007Z,16.58
2022-11-24T07:10:33.868Z,15.73
2022-11-24T07:13:36.718Z,17.53
2022-11-24T07:16:40.255Z,15.97
2022-11-24T07:19:42.819Z,17.70
2022-11-24T07:22:45.330Z,17.48
2022-11-24T07:25:47.781Z,17.33
2022-11-24T07:28:50.999Z,18.20
2022-11-24T07:31:53.519Z,17.50
2022-11-24T07:34:56.260Z,18.33
2022-11-24T07:37:59.356Z,17.80
2022-11-24T07:41:22.156Z,16.90
2022-11-24T07:44:26.957Z,17.70
2022-11-24T07:47:29.438Z,16.65
2022-11-24T07:50:34.549Z,17.67
2022-11-24T07:53:38.459Z,18.33
2022-11-24T07:56:41.335Z,21.48
2022-11-24T07:59:44.228Z,18.40
2022-11-24T08:02:46.738Z,18.07
2022-11-24T08:09:22.081Z,16.27
2022-11-24T08:12:24.601Z,16.27
2022-11-24T08:15:27.399Z,16.98
2022-11-24T08:18:30.252Z,17.67
2022-11-24T08:21:32.810Z,18.73
2022-11-24T08:24:35.582Z,19.48
2022-11-24T08:27:40.158Z,20.57
2022-11-24T08:30:46.581Z,18.77
2022-11-24T08:33:49.102Z,18.58
2022-11-24T08:36:52.324Z,17.85
2022-11-24T08:39:54.855Z,21.55
2022-11-24T08:42:58.642Z,21.17
2022-11-24T08:46:07.138Z,17.88
2022-11-24T08:49:10.710Z,16.92
2022-11-24T08:52:16.021Z,18.47
2022-11-24T08:55:18.958Z,17.37
2022-11-24T08:58:21.496Z,17.52
2022-11-24T09:01:25.573Z,16.33
2022-11-24T09:04:28.388Z,16.40
2022-11-24T09:07:30.953Z,16.70
2022-11-24T09:10:33.639Z,18.95
2022-11-24T09:13:37.054Z,17.67
2022-11-24T09:16:39.697Z,16.73
2022-11-24T09:19:42.209Z,15.67
2022-11-24T09:22:44.967Z,15.00
2022-11-24T09:25:47.682Z,15.05
2022-11-24T09:28:54.467Z,14.80
2022-11-24T09:32:00.736Z,14.77
2022-11-24T09:35:06.454Z,15.10
2022-11-24T09:38:09.980Z,16.08
2022-11-24T09:41:19.050Z,16.17
2022-11-24T09:44:50.080Z,15.97
2022-11-24T09:48:08.555Z,15.35
2022-11-24T09:51:13.865Z,15.32
2022-11-24T09:54:21.775Z,13.77
2022-11-24T09:57:34.124Z,14.53
2022-11-24T10:00:54.808Z,13.30
2022-11-24T10:04:02.585Z,14.93
2022-11-24T10:07:20.131Z,14.40
2022-11-24T10:10:33.080Z,14.37
2022-11-24T10:14:04.935Z,15.15
2022-11-24T10:17:18.928Z,16.17
2022-11-24T10:20:45.321Z,14.95
2022-11-24T10:24:20.907Z,16.97
2022-11-24T10:27:33.805Z,16.97
2022-11-24T10:30:37.531Z,17.13
2022-11-24T10:33:41.356Z,16.83
2022-11-24T10:37:13.959Z,18.17
2022-11-24T10:40:55.827Z,19.87
2022-11-24T10:43:58.023Z,19.65
2022-11-24T10:47:00.501Z,19.35
2022-11-24T10:50:20.122Z,20.58
2022-11-24T10:53:26.921Z,18.30
2022-11-24T10:56:41.453Z,15.90
2022-11-24T10:59:44.209Z,17.02
2022-11-24T11:02:48.755Z,17.70
2022-11-24T11:06:11.565Z,16.25
2022-11-24T11:09:23.485Z,17.47
2022-11-24T11:12:47.634Z,17.93
2022-11-24T11:15:50.380Z,17.10
2022-11-24T11:18:53.655Z,18.85
2022-11-24T11:22:24.009Z,18.58
2022-11-24T11:25:33.383Z,18.80
2022-11-24T11:28:35.923Z,19.35
2022-11-24T11:31:39.612Z,17.90
2022-11-24T11:34:42.379Z,18.15
2022-11-24T11:37:46.876Z,19.47
2022-11-24T11:40:51.384Z,19.00
2022-11-24T11:44:24.336Z,18.95
2022-11-24T11:47:29.356Z,19.00
2022-11-24T11:50:47.383Z,18.45
2022-11-24T11:54:27.350Z,18.40
2022-11-24T11:57:41.947Z,17.67
2022-11-24T12:01:05.472Z,18.27
2022-11-24T12:04:14.582Z,16.90
2022-11-24T12:07:35.563Z,17.30
2022-11-24T12:10:59.630Z,16.63
2022-11-24T12:14:17.392Z,17.33
2022-11-24T12:17:40.442Z,17.08
2022-11-24T12:20:55.911Z,15.68
2022-11-24T12:24:37.720Z,16.03
2022-11-24T12:28:08.527Z,15.90
2022-11-24T12:31:37.522Z,15.88
2022-11-24T12:35:05.987Z,14.15
2022-11-24T12:38:26.569Z,14.43
2022-11-24T12:41:47.579Z,15.13
2022-11-24T12:44:59.116Z,15.48
2022-11-24T12:48:07.671Z,14.35
2022-11-24T12:51:19.060Z,13.47
2022-11-24T12:54:22.596Z,14.57
2022-11-24T12:57:43.870Z,14.02
2022-11-24T13:01:11.575Z,13.55
2022-11-24T13:04:59.092Z,14.25
2022-11-24T13:08:03.943Z,14.27
2022-11-24T13:11:21.667Z,14.52
2022-11-24T13:14:38.342Z,14.93
2022-11-24T13:17:59.467Z,15.80
2022-11-24T13:21:03.595Z,15.45
2022-11-24T13:24:19.702Z,16.30
2022-11-24T13:27:28.519Z,14.40
2022-11-24T13:30:34.049Z,13.98
2022-11-24T13:33:37.729Z,13.75
2022-11-24T13:36:53.165Z,14.70
2022-11-24T13:40:01.026Z,15.13
2022-11-24T13:43:04.812Z,14.30
2022-11-24T13:46:09.877Z,13.88
2022-11-24T13:49:20.577Z,14.57
2022-11-24T13:52:43.955Z,13.97
2022-11-24T13:56:17.811Z,14.52
2022-11-24T13:59:33.057Z,16.10
2022-11-24T14:02:35.847Z,18.20
2022-11-24T14:05:40.126Z,17.87
2022-11-24T14:08:46.498Z,17.55
2022-11-24T14:12:08.313Z,17.58
2022-11-24T14:15:27.111Z,16.52
2022-11-24T14:18:30.058Z,17.37
2022-11-24T14:21:42.259Z,18.10
2022-11-24T14:24:47.235Z,17.88
2022-11-24T14:27:50.235Z,18.40
2022-11-24T14:31:18.017Z,18.63
2022-11-24T14:34:23.166Z,17.88
2022-11-24T14:37:25.757Z,18.77
2022-11-24T14:40:52.038Z,20.70
2022-11-24T14:44:28.922Z,19.27
2022-11-24T14:47:37.163Z,19.73
2022-11-24T14:50:39.780Z,18.92
2022-11-24T14:53:49.160Z,20.52
2022-11-24T14:57:05.943Z,18.77
2022-11-24T15:00:17.148Z,19.40
2022-11-24T15:03:19.897Z,17.85
2022-11-24T15:06:22.342Z,17.17
2022-11-24T15:09:34.627Z,18.73
2022-11-24T15:12:42.506Z,19.23
2022-11-24T15:15:57.597Z,18.73
2022-11-24T15:19:03.997Z,20.05
2022-11-24T15:22:39.282Z,22.33
2022-11-24T15:25:52.002Z,20.23
2022-11-24T15:28:54.379Z,21.65
2022-11-24T15:31:58.695Z,22.42
2022-11-24T15:35:01.274Z,19.75
2022-11-24T15:38:03.708Z,20.90
2022-11-24T15:41:18.174Z,25.15
2022-11-24T15:44:20.627Z,25.67
2022-11-24T15:47:23.014Z,24.38
2022-11-24T15:50:27.936Z,19.10
2022-11-24T15:53:40.454Z,22.92
2022-11-24T15:56:44.548Z,23.33
2022-11-24T15:59:53.792Z,23.93
2022-11-24T16:02:56.970Z,19.27
2022-11-24T16:05:59.481Z,21.30
2022-11-24T16:09:02.003Z,19.17
2022-11-24T16:12:04.761Z,20.15
2022-11-24T16:15:07.605Z,18.97
2022-11-24T16:18:10.473Z,18.33
2022-11-24T16:21:12.993Z,19.67
2022-11-24T16:24:15.497Z,20.98
2022-11-24T16:27:18.066Z,20.37
2022-11-24T16:30:20.937Z,20.60
2022-11-24T16:33:23.980Z,21.77
2022-11-24T16:36:26.783Z,21.85
2022-11-24T16:39:29.435Z,21.17
2022-11-24T16:42:31.888Z,24.20
2022-11-24T16:45:34.327Z,22.73
2022-11-24T16:48:37.846Z,23.87
2022-11-24T16:51:42.520Z,23.20
2022-11-24T16:54:48.241Z,23.27
2022-11-24T16:57:51.035Z,21.92
2022-11-24T17:00:53.969Z,20.70
2022-11-24T17:03:56.436Z,19.93
2022-11-24T17:06:59.130Z,19.55
2022-11-24T17:10:01.622Z,18.55
2022-11-24T17:13:04.503Z,21.67
2022-11-24T17:16:09.132Z,20.40
2022-11-24T17:19:12.886Z,21.67
2022-11-24T17:22:15.277Z,19.02
2022-11-24T17:25:17.972Z,19.70
2022-11-24T17:28:21.131Z,18.93
2022-11-24T17:31:26.342Z,21.35
2022-11-24T17:34:29.679Z,21.33
2022-11-24T17:37:32.749Z,21.83
2022-11-24T17:40:35.735Z,19.53
2022-11-24T17:43:38.580Z,19.85
2022-11-24T17:46:41.557Z,16.80
2022-11-24T17:49:44.569Z,16.88
2022-11-24T17:52:47.318Z,22.90
2022-11-24T17:55:49.970Z,27.17
2022-11-24T17:58:57.940Z,23.05
2022-11-24T18:02:02.843Z,20.03
2022-11-24T18:05:06.104Z,19.70
2022-11-24T18:08:09.565Z,22.13
2022-11-24T18:11:25.930Z,21.08
2022-11-24T18:14:33.490Z,21.57
2022-11-24T18:17:36.754Z,22.23
2022-11-24T18:20:39.686Z,22.67
2022-11-24T18:23:43.787Z,24.63
2022-11-24T18:26:46.866Z,27.13
2022-11-24T18:29:54.852Z,26.43
2022-11-24T18:32:58.951Z,25.30
2022-11-24T18:36:03.513Z,25.92
2022-11-24T18:39:08.105Z,25.57
2022-11-24T18:42:10.868Z,23.30
2022-11-24T18:45:13.535Z,22.73
2022-11-24T18:48:17.070Z,24.63
2022-11-24T18:51:20.161Z,24.80
2022-11-24T18:54:22.916Z,25.27
2022-11-24T18:57:25.529Z,24.70
2022-11-24T19:00:28.537Z,24.08
2022-11-24T19:03:30.975Z,23.87
2022-11-24T19:06:36.003Z,22.48
2022-11-24T19:09:38.836Z,22.67
2022-11-24T19:12:44.915Z,22.85
2022-11-24T19:15:49.627Z,22.97
2022-11-24T19:18:56.691Z,22.85
2022-11-24T19:22:03.277Z,22.27
2022-11-24T19:25:06.799Z,21.75
2022-11-24T19:28:12.937Z,22.90
2022-11-24T19:31:18.173Z,23.17
2022-11-24T19:34:20.868Z,23.73
2022-11-24T19:37:23.739Z,24.07
2022-11-24T19:40:28.075Z,23.75
2022-11-24T19:43:31.410Z,24.50
2022-11-24T19:46:34.128Z,24.17
2022-11-24T19:49:36.687Z,23.57
2022-11-24T19:52:39.475Z,21.60
2022-11-24T19:55:42.238Z,21.38
2022-11-24T19:58:46.110Z,19.08
2022-11-24T20:01:49.128Z,19.50
2022-11-24T20:04:51.959Z,19.70
2022-11-24T20:07:54.937Z,20.42
2022-11-24T20:11:05.870Z,19.67
2022-11-24T20:14:12.495Z,19.47
2022-11-24T20:17:15.132Z,18.58
2022-11-24T20:20:17.972Z,18.27
2022-11-24T20:23:20.847Z,18.50
2022-11-24T20:26:25.513Z,17.53
2022-11-24T20:29:29.486Z,17.75
2022-11-24T20:32:32.184Z,18.00
2022-11-24T20:35:34.812Z,17.60
2022-11-24T20:38:38.556Z,17.33
2022-11-24T20:41:41.444Z,16.77
2022-11-24T20:44:44.124Z,17.25
2022-11-24T20:47:46.625Z,17.73
2022-11-24T20:50:51.474Z,16.80
2022-11-24T20:53:57.937Z,17.75
2022-11-24T20:57:00.604Z,17.80
2022-11-24T21:00:04.519Z,18.17
2022-11-24T21:03:08.554Z,18.73
2022-11-24T21:06:14.801Z,18.75
2022-11-24T21:09:18.500Z,21.55
2022-11-24T21:12:21.135Z,19.73
2022-11-24T21:15:24.047Z,19.57
2022-11-24T21:18:26.996Z,19.13
2022-11-24T21:21:34.155Z,20.52
2022-11-24T21:24:37.140Z,17.95
2022-11-24T21:27:40.275Z,17.00
2022-11-24T21:30:42.765Z,17.00
2022-11-24T21:33:50.850Z,16.85
2022-11-24T21:36:53.483Z,15.37
2022-11-24T21:39:55.868Z,16.50
2022-11-24T21:42:59.682Z,17.42
2022-11-24T21:46:07.108Z,18.83
2022-11-24T21:49:09.721Z,19.93
2022-11-24T21:52:12.381Z,21.15
2022-11-24T21:55:15.187Z,19.60
2022-11-24T21:58:17.576Z,16.77
2022-11-24T22:01:21.851Z,16.83
2022-11-24T22:04:24.644Z,17.02
2022-11-24T22:07:31.539Z,15.45
2022-11-24T22:10:34.970Z,14.80
2022-11-24T22:13:37.424Z,14.23
2022-11-24T22:16:40.132Z,14.23
2022-11-24T22:19:42.616Z,15.20
2022-11-24T22:22:45.216Z,19.83
2022-11-24T22:25:47.684Z,19.17
2022-11-24T22:28:51.025Z,17.27
2022-11-24T22:31:54.274Z,16.15
2022-11-24T22:34:56.838Z,16.30
2022-11-24T22:37:59.280Z,13.48
2022-11-24T22:41:07.116Z,14.18
2022-11-24T22:44:09.575Z,13.63
2022-11-24T22:47:12.013Z,13.27
2022-11-24T22:50:14.852Z,13.43
2022-11-24T22:53:17.308Z,12.63
2022-11-24T22:56:20.715Z,13.85
2022-11-24T22:59:23.446Z,13.73
2022-11-24T23:02:25.907Z,14.90
2022-11-24T23:05:29.226Z,15.13
2022-11-24T23:08:36.103Z,14.82
2022-11-24T23:11:40.781Z,15.63
2022-11-24T23:14:43.225Z,15.13
2022-11-24T23:17:45.604Z,15.43
2022-11-24T23:20:47.991Z,14.55
2022-11-24T23:23:51.339Z,14.67
2022-11-24T23:26:54.107Z,15.18
2022-11-24T23:29:56.495Z,15.82
2022-11-24T23:32:59.433Z,15.93
2022-11-24T23:36:05.087Z,14.03
2022-11-24T23:39:14.428Z,14.35
2022-11-24T23:42:16.871Z,14.15
2022-11-24T23:45:19.305Z,13.18
2022-11-24T23:48:21.872Z,14.17
2022-11-24T23:51:27.973Z,14.70
2022-11-24T23:54:30.647Z,13.80
2022-11-24T23:57:33.060Z,14.03
